| time (UTC) | temp F | wind direction | speed knots | gust knots | rain 1hr in | rain 24hr in | rain mn in | humidity % | barometer mb |
| 20260506014105 | 79 | 157 | 4.3 | 12.2 | 0.00 | 0.00 | 0.00 | 85 | 992.7 |
| 20260506013604 | 79 | 155 | 6.1 | 12.2 | 0.00 | 0.00 | 0.00 | 85 | 992.7 |
| 20260506013103 | 79 | 145 | 6.1 | 12.2 | 0.00 | 0.00 | 0.00 | 85 | 992.1 |
| 20260506012602 | 79 | 153 | 2.6 | 12.2 | 0.00 | 0.00 | 0.00 | 84 | 992.1 |
| 20260506012101 | 79 | 143 | 6.1 | 12.2 | 0.00 | 0.00 | 0.00 | 84 | 992.1 |
| 20260506011600 | 79 | 170 | 5.2 | 12.2 | 0.00 | 0.00 | 0.00 | 84 | 992.1 |
| 20260506011059 | 79 | 147 | 5.2 | 12.2 | 0.00 | 0.00 | 0.00 | 83 | 992.0 |
| 20260506010042 | 79 | 155 | 7.0 | 12.2 | 0.00 | 0.00 | 0.00 | 83 | 991.7 |
| 20260506005541 | 80 | 162 | 6.1 | 12.2 | 0.00 | 0.00 | 0.00 | 82 | 991.9 |
| 20260506005040 | 80 | 160 | 6.1 | 12.2 | 0.00 | 0.00 | 0.00 | 82 | 991.7 |
| 20260506004539 | 80 | 157 | 7.0 | 12.2 | 0.00 | 0.00 | 0.00 | 82 | 991.5 |
| 20260506004038 | 80 | 141 | 5.2 | 11.3 | 0.00 | 0.00 | 0.00 | 82 | 991.1 |
| 20260506003021 | 80 | 151 | 7.0 | 11.3 | 0.00 | 0.00 | 0.00 | 81 | 990.7 |
| 20260506002520 | 80 | 150 | 5.2 | 11.3 | 0.00 | 0.00 | 0.00 | 81 | 991.4 |
| 20260506002019 | 80 | 146 | 4.3 | 13.9 | 0.00 | 0.00 | 0.00 | 81 | 990.9 |
| 20260506001518 | 81 | 156 | 7.0 | 13.9 | 0.00 | 0.00 | 0.00 | 80 | 990.9 |
| 20260506001017 | 81 | 161 | 7.0 | 11.3 | 0.00 | 0.00 | 0.00 | 80 | 990.3 |
| 20260506000516 | 81 | 156 | 5.2 | 11.3 | 0.00 | 0.00 | 0.00 | 80 | 989.9 |
| 20260506000015 | 81 | 163 | 5.2 | 11.3 | 0.00 | 0.00 | 0.00 | 80 | 989.8 |
| 20260505235514 | 81 | 174 | 4.3 | 11.3 | 0.00 | 0.00 | 0.00 | 79 | 989.7 |
| 20260505235013 | 81 | 163 | 4.3 | 11.3 | 0.00 | 0.00 | 0.00 | 80 | 989.9 |
| 20260505234512 | 81 | 167 | 3.5 | 11.3 | 0.00 | 0.00 | 0.00 | 80 | 990.0 |
| 20260505234011 | 81 | 160 | 6.1 | 11.3 | 0.00 | 0.00 | 0.00 | 80 | 990.1 |
| 20260505233510 | 81 | 157 | 6.1 | 13.0 | 0.00 | 0.00 | 0.00 | 79 | 990.0 |
| 20260505232453 | 82 | 161 | 7.8 | 12.2 | 0.00 | 0.00 | 0.00 | 79 | 989.6 |
| 20260505231952 | 82 | 163 | 7.0 | 13.9 | 0.00 | 0.00 | 0.00 | 79 | 989.4 |
| 20260505231451 | 82 | 176 | 6.1 | 15.6 | 0.00 | 0.00 | 0.00 | 78 | 989.2 |
| 20260505230950 | 82 | 159 | 8.7 | 15.6 | 0.00 | 0.00 | 0.00 | 78 | 989.1 |
| 20260505225417 | 82 | 153 | 7.0 | 12.2 | 0.00 | 0.00 | 0.00 | 78 | 988.7 |
| 20260505224916 | 82 | 150 | 5.2 | 12.2 | 0.00 | 0.00 | 0.00 | 78 | 988.8 |
| 20260505224415 | 82 | 165 | 7.0 | 13.0 | 0.00 | 0.00 | 0.00 | 77 | 988.8 |
| 20260505223914 | 83 | 158 | 7.0 | 13.0 | 0.00 | 0.00 | 0.00 | 77 | 988.5 |
| 20260505223413 | 83 | 170 | 7.8 | 13.0 | 0.00 | 0.00 | 0.00 | 77 | 988.4 |
| 20260505222912 | 82 | 160 | 7.0 | 16.5 | 0.00 | 0.00 | 0.00 | 78 | 988.9 |
| 20260505222411 | 83 | 159 | 7.0 | 16.5 | 0.00 | 0.00 | 0.00 | 78 | 988.5 |
| 20260505221354 | 83 | 155 | 8.7 | 15.6 | 0.00 | 0.00 | 0.00 | 76 | 987.4 |
| 20260505220338 | 84 | 173 | 7.0 | 17.4 | 0.00 | 0.00 | 0.00 | 75 | 987.3 |
| 20260505214804 | 84 | 158 | 7.8 | 13.9 | 0.00 | 0.00 | 0.00 | 74 | 986.4 |
| 20260505214303 | 84 | 157 | 5.2 | 16.5 | 0.00 | 0.00 | 0.00 | 76 | 986.8 |
| 20260505213803 | 84 | 138 | 9.6 | 16.5 | 0.00 | 0.00 | 0.00 | 75 | 987.4 |
| 20260505213301 | 84 | 139 | 11.3 | 13.9 | 0.00 | 0.00 | 0.00 | 76 | 987.8 |
| 20260505212800 | 84 | 146 | 8.7 | 15.6 | 0.00 | 0.00 | 0.00 | 75 | 987.7 |
| 20260505212300 | 84 | 165 | 7.0 | 16.5 | 0.00 | 0.00 | 0.00 | 74 | 987.2 |
| 20260505211758 | 84 | 146 | 7.8 | 20.0 | 0.00 | 0.00 | 0.00 | 74 | 987.0 |
| 20260505211258 | 84 | 167 | 7.8 | 20.0 | 0.00 | 0.00 | 0.00 | 75 | 986.8 |
| 20260505205725 | 84 | 166 | 5.2 | 17.4 | 0.00 | 0.00 | 0.00 | 75 | 987.2 |
| 20260505205224 | 84 | 156 | 7.0 | 17.4 | 0.00 | 0.00 | 0.00 | 74 | 987.4 |
| 20260505204723 | 84 | 161 | 7.0 | 17.4 | 0.00 | 0.00 | 0.00 | 73 | 986.8 |
| 20260505204222 | 84 | 183 | 9.6 | 17.4 | 0.00 | 0.00 | 0.00 | 73 | 987.7 |
| 20260505203205 | 84 | 180 | 7.8 | 13.0 | 0.00 | 0.00 | 0.00 | 74 | 987.5 |
| 20260505202704 | 84 | 156 | 6.1 | 13.0 | 0.00 | 0.00 | 0.00 | 74 | 987.9 |
| 20260505202203 | 84 | 165 | 7.0 | 13.9 | 0.00 | 0.00 | 0.00 | 74 | 987.9 |
| 20260505201702 | 84 | 181 | 7.0 | 13.9 | 0.00 | 0.00 | 0.00 | 76 | 988.4 |
| 20260505201201 | 84 | 181 | 7.8 | 13.0 | 0.00 | 0.00 | 0.00 | 75 | 988.1 |
| 20260505195628 | 83 | 172 | 7.0 | 13.0 | 0.00 | 0.00 | 0.00 | 78 | 988.7 |
| 20260505195127 | 83 | 155 | 9.6 | 13.0 | 0.00 | 0.00 | 0.00 | 76 | 988.1 |
| 20260505194626 | 84 | 185 | 7.0 | 13.0 | 0.00 | 0.00 | 0.00 | 75 | 987.4 |
| 20260505193609 | 84 | 185 | 7.0 | 11.3 | 0.00 | 0.00 | 0.00 | 75 | 987.8 |
| 20260505193108 | 83 | 178 | 6.1 | 11.3 | 0.00 | 0.00 | 0.00 | 76 | 988.5 |
| 20260505192607 | 83 | 150 | 7.0 | 11.3 | 0.00 | 0.00 | 0.00 | 77 | 988.8 |
| 20260505192106 | 83 | 171 | 6.1 | 12.2 | 0.00 | 0.00 | 0.00 | 78 | 988.9 |
| 20260505191605 | 83 | 187 | 6.1 | 12.2 | 0.00 | 0.00 | 0.00 | 78 | 989.3 |
| 20260505191104 | 83 | 189 | 5.2 | 13.9 | 0.00 | 0.00 | 0.00 | 77 | 990.3 |
| 20260505190047 | 83 | 191 | 7.8 | 13.9 | 0.00 | 0.00 | 0.00 | 76 | 988.8 |
| 20260505185546 | 82 | 177 | 4.3 | 13.0 | 0.00 | 0.00 | 0.00 | 79 | 990.0 |
| 20260505185045 | 82 | 195 | 6.1 | 13.0 | 0.00 | 0.00 | 0.00 | 79 | 990.4 |
| 20260505184544 | 82 | 181 | 4.3 | 13.0 | 0.00 | 0.00 | 0.00 | 79 | 990.8 |
| 20260505184043 | 81 | 180 | 6.1 | 13.0 | 0.00 | 0.00 | 0.00 | 79 | 991.0 |
| 20260505183542 | 81 | 191 | 7.0 | 13.9 | 0.00 | 0.00 | 0.00 | 79 | 990.9 |
| 20260505183041 | 82 | 190 | 7.0 | 13.9 | 0.00 | 0.00 | 0.00 | 79 | 990.5 |
| 20260505182540 | 82 | 191 | 3.5 | 12.2 | 0.00 | 0.00 | 0.00 | 79 | 990.3 |
| 20260505182039 | 82 | 185 | 6.1 | 12.2 | 0.00 | 0.00 | 0.00 | 79 | 990.2 |
| 20260505181538 | 82 | 191 | 6.1 | 12.2 | 0.00 | 0.00 | 0.00 | 79 | 990.3 |
| 20260505180521 | 81 | 197 | 6.1 | 12.2 | 0.00 | 0.00 | 0.00 | 79 | 989.7 |
| 20260505180020 | 82 | 185 | 5.2 | 12.2 | 0.00 | 0.00 | 0.00 | 79 | 989.5 |
| 20260505175519 | 81 | 180 | 5.2 | 12.2 | 0.00 | 0.00 | 0.00 | 81 | 989.9 |
| 20260505175018 | 81 | 179 | 6.1 | 10.4 | 0.00 | 0.00 | 0.00 | 80 | 990.0 |
| 20260505174517 | 81 | 188 | 4.3 | 10.4 | 0.00 | 0.00 | 0.00 | 81 | 990.5 |
| 20260505173500 | 80 | 169 | 7.0 | 11.3 | 0.00 | 0.00 | 0.00 | 81 | 990.9 |
| 20260505172443 | 80 | 162 | 4.3 | 12.2 | 0.00 | 0.00 | 0.00 | 82 | 991.2 |
| 20260505171426 | 80 | 188 | 5.2 | 12.2 | 0.00 | 0.00 | 0.00 | 82 | 992.3 |
| 20260505170925 | 80 | 197 | 6.1 | 11.3 | 0.00 | 0.00 | 0.00 | 82 | 992.2 |
| 20260505170425 | 79 | 188 | 3.5 | 10.4 | 0.00 | 0.00 | 0.00 | 84 | 992.5 |
| 20260505165407 | 79 | 186 | 4.3 | 10.4 | 0.00 | 0.00 | 0.00 | 84 | 992.7 |
| 20260505164906 | 79 | 185 | 5.2 | 11.3 | 0.00 | 0.00 | 0.00 | 83 | 992.6 |
| 20260505164405 | 79 | 176 | 5.2 | 12.2 | 0.00 | 0.00 | 0.00 | 84 | 992.5 |
| 20260505163349 | 79 | 190 | 4.3 | 11.3 | 0.00 | 0.00 | 0.00 | 85 | 993.3 |
| 20260505162331 | 78 | 192 | 8.7 | 16.5 | 0.00 | 0.00 | 0.00 | 84 | 994.3 |
| 20260505161830 | 78 | 191 | 7.8 | 16.5 | 0.00 | 0.00 | 0.00 | 85 | 993.9 |
| 20260505161330 | 78 | 189 | 6.1 | 13.9 | 0.00 | 0.00 | 0.00 | 86 | 994.0 |
| 20260505160828 | 78 | 201 | 8.7 | 13.9 | 0.00 | 0.00 | 0.00 | 86 | 994.0 |
| 20260505160327 | 77 | 209 | 6.1 | 13.0 | 0.00 | 0.00 | 0.00 | 87 | 994.6 |
| 20260505152806 | 76 | 186 | 7.0 | 13.9 | 0.00 | 0.00 | 0.00 | 89 | 994.8 |
| 20260505152305 | 76 | 184 | 4.3 | 10.4 | 0.00 | 0.00 | 0.00 | 90 | 995.3 |
| 20260505151804 | 76 | 174 | 3.5 | 11.3 | 0.00 | 0.00 | 0.00 | 90 | 995.9 |
| 20260505151302 | 75 | 182 | 4.3 | 11.3 | 0.00 | 0.00 | 0.00 | 91 | 996.2 |
| 20260505150802 | 75 | 188 | 6.1 | 10.4 | 0.00 | 0.00 | 0.00 | 91 | 995.8 |
| 20260505150301 | 75 | 189 | 5.2 | 12.2 | 0.00 | 0.00 | 0.00 | 92 | 995.4 |
| 20260505140219 | 73 | 183 | 7.0 | 12.2 | 0.00 | 0.00 | 0.00 | 93 | 997.1 |
| 20260505130152 | 72 | 166 | 4.3 | 11.3 | 0.00 | 0.00 | 0.00 | 95 | 997.5 |
| 20260505124133 | 71 | 169 | 4.3 | 11.3 | 0.00 | 0.00 | 0.00 | 96 | 997.8 |
| 20260505123632 | 71 | 170 | 4.3 | 11.3 | 0.00 | 0.00 | 0.00 | 96 | 998.2 |
| 20260505121543 | 71 | 178 | 4.3 | 9.6 | 0.00 | 0.00 | 0.00 | 96 | 997.4 |
| 20260505121042 | 71 | 182 | 4.3 | 11.3 | 0.00 | 0.00 | 0.00 | 96 | 997.6 |
| 20260505120541 | 71 | 180 | 2.6 | 11.3 | 0.00 | 0.00 | 0.00 | 96 | 998.1 |
| 20260505120040 | 71 | 164 | 4.3 | 11.3 | 0.00 | 0.00 | 0.00 | 96 | 997.9 |
| 20260505115539 | 70 | 180 | 3.5 | 9.6 | 0.00 | 0.00 | 0.00 | 96 | 997.9 |
| 20260505114522 | 70 | 167 | 2.6 | 11.3 | 0.00 | 0.00 | 0.00 | 96 | 998.1 |
| 20260505113505 | 70 | 187 | 4.3 | 11.3 | 0.00 | 0.00 | 0.00 | 96 | 998.1 |
| 20260505113005 | 70 | 170 | 4.3 | 11.3 | 0.00 | 0.00 | 0.00 | 96 | 998.0 |
| 20260505112503 | 70 | 192 | 4.3 | 11.3 | 0.00 | 0.00 | 0.00 | 96 | 998.4 |
| 20260505112002 | 70 | 179 | 5.2 | 11.3 | 0.00 | 0.00 | 0.00 | 96 | 998.4 |
| 20260505111501 | 70 | 171 | 5.2 | 10.4 | 0.00 | 0.00 | 0.00 | 96 | 998.0 |
| 20260505111000 | 70 | 168 | 3.5 | 10.4 | 0.00 | 0.00 | 0.00 | 96 | 997.6 |
| 20260505101905 | 69 | 150 | 3.5 | 9.6 | 0.00 | 0.00 | 0.00 | 96 | 998.1 |
| 20260505101405 | 69 | 168 | 3.5 | 9.6 | 0.00 | 0.00 | 0.00 | 96 | 998.4 |
| 20260505100904 | 69 | 166 | 2.6 | 9.6 | 0.00 | 0.00 | 0.00 | 95 | 998.3 |
| 20260505100402 | 69 | 154 | 3.5 | 9.6 | 0.00 | 0.00 | 0.00 | 95 | 998.6 |
| 20260505095902 | 69 | 169 | 2.6 | 9.6 | 0.00 | 0.00 | 0.00 | 95 | 998.5 |
| 20260505094845 | 69 | 162 | 3.5 | 9.6 | 0.00 | 0.00 | 0.00 | 95 | 998.2 |
| 20260505094344 | 69 | 161 | 2.6 | 9.6 | 0.00 | 0.00 | 0.00 | 95 | 998.4 |
| 20260505093842 | 69 | 156 | 3.5 | 9.6 | 0.00 | 0.00 | 0.00 | 95 | 998.5 |
| 20260505093342 | 69 | 146 | 3.5 | 9.6 | 0.00 | 0.00 | 0.00 | 95 | 998.2 |
| 20260505092325 | 70 | 147 | 3.5 | 9.6 | 0.00 | 0.00 | 0.00 | 95 | 999.1 |
| 20260505090752 | 69 | 169 | 5.2 | 10.4 | 0.00 | 0.00 | 0.00 | 95 | 998.6 |
| 20260505090251 | 69 | 167 | 2.6 | 9.6 | 0.00 | 0.00 | 0.00 | 94 | 998.3 |
| 20260505085750 | 69 | 161 | 3.5 | 9.6 | 0.00 | 0.00 | 0.00 | 94 | 998.7 |
| 20260505085249 | 70 | 147 | 2.6 | 9.6 | 0.00 | 0.00 | 0.00 | 94 | 998.4 |
| 20260505084748 | 70 | 164 | 2.6 | 9.6 | 0.00 | 0.00 | 0.00 | 94 | 998.5 |
| 20260505084247 | 70 | 158 | 3.5 | 9.6 | 0.00 | 0.00 | 0.00 | 94 | 998.6 |
| 20260505083746 | 70 | 155 | 3.5 | 9.6 | 0.00 | 0.00 | 0.00 | 94 | 999.1 |
| 20260505083245 | 70 | 166 | 4.3 | 9.6 | 0.00 | 0.00 | 0.00 | 93 | 999.0 |
| 20260505082228 | 70 | 173 | 2.6 | 10.4 | 0.00 | 0.00 | 0.00 | 93 | 999.0 |
| 20260505081727 | 70 | 171 | 4.3 | 10.4 | 0.00 | 0.00 | 0.00 | 93 | 999.1 |
| 20260505081226 | 70 | 158 | 5.2 | 10.4 | 0.00 | 0.00 | 0.00 | 93 | 999.3 |
| 20260505080209 | 70 | 160 | 2.6 | 10.4 | 0.00 | 0.00 | 0.00 | 92 | 998.9 |
| 20260505075152 | 70 | 168 | 3.5 | 10.4 | 0.00 | 0.00 | 0.00 | 92 | 998.8 |
| 20260505074651 | 70 | 160 | 3.5 | 10.4 | 0.00 | 0.00 | 0.00 | 92 | 998.9 |
| 20260505074150 | 70 | 156 | 2.6 | 10.4 | 0.00 | 0.00 | 0.00 | 92 | 998.5 |
| 20260505073133 | 70 | 159 | 4.3 | 10.4 | 0.00 | 0.00 | 0.00 | 91 | 999.2 |
| 20260505072632 | 70 | 164 | 3.5 | 10.4 | 0.00 | 0.00 | 0.00 | 91 | 999.1 |
| 20260505071615 | 70 | 167 | 3.5 | 10.4 | 0.00 | 0.00 | 0.00 | 91 | 999.5 |
| 20260505071114 | 70 | 173 | 4.3 | 10.4 | 0.00 | 0.00 | 0.00 | 91 | 999.8 |
| 20260505070057 | 70 | 181 | 5.2 | 11.3 | 0.00 | 0.00 | 0.00 | 91 | 1000.2 |
| 20260505065556 | 70 | 168 | 4.3 | 11.3 | 0.00 | 0.00 | 0.00 | 90 | 999.8 |
| 20260505065055 | 70 | 159 | 5.2 | 10.4 | 0.00 | 0.00 | 0.00 | 90 | 999.8 |
| 20260505064554 | 70 | 168 | 4.3 | 10.4 | 0.00 | 0.00 | 0.00 | 90 | 1000.1 |
| 20260505064053 | 70 | 158 | 5.2 | 10.4 | 0.00 | 0.00 | 0.00 | 90 | 999.9 |
| 20260505063552 | 70 | 168 | 4.3 | 11.3 | 0.00 | 0.00 | 0.00 | 90 | 1000.4 |
| 20260505062535 | 70 | 156 | 4.3 | 11.3 | 0.00 | 0.00 | 0.00 | 90 | 999.6 |
| 20260505062034 | 70 | 157 | 4.3 | 11.3 | 0.00 | 0.00 | 0.00 | 89 | 1000.2 |
| 20260505061533 | 70 | 157 | 5.2 | 11.3 | 0.00 | 0.00 | 0.00 | 89 | 999.9 |
| 20260505061032 | 70 | 152 | 6.1 | 10.4 | 0.00 | 0.00 | 0.00 | 89 | 1000.1 |
| 20260505060531 | 70 | 158 | 4.3 | 10.4 | 0.00 | 0.00 | 0.00 | 89 | 1000.1 |
| 20260505060030 | 70 | 152 | 4.3 | 10.4 | 0.00 | 0.00 | 0.00 | 89 | 1000.1 |
| 20260505055013 | 70 | 147 | 3.5 | 10.4 | 0.00 | 0.00 | 0.00 | 89 | 1000.2 |
| 20260505054512 | 70 | 140 | 3.5 | 10.4 | 0.00 | 0.00 | 0.00 | 89 | 999.9 |
| 20260505054011 | 70 | 148 | 5.2 | 10.4 | 0.00 | 0.00 | 0.00 | 89 | 1000.3 |
| 20260505053510 | 70 | 147 | 4.3 | 10.4 | 0.00 | 0.00 | 0.00 | 88 | 1000.4 |
| 20260505053009 | 70 | 153 | 4.3 | 10.4 | 0.00 | 0.00 | 0.00 | 88 | 1000.3 |
| 20260505052508 | 70 | 153 | 3.5 | 10.4 | 0.00 | 0.00 | 0.00 | 88 | 1000.2 |
| 20260505052007 | 70 | 141 | 6.1 | 11.3 | 0.00 | 0.00 | 0.00 | 88 | 999.6 |
| 20260505050950 | 70 | 146 | 5.2 | 11.3 | 0.00 | 0.00 | 0.00 | 88 | 1000.1 |
| 20260505050449 | 70 | 150 | 5.2 | 11.3 | 0.00 | 0.00 | 0.00 | 88 | 1000.1 |
| 20260505041425 | 71 | 137 | 4.3 | 11.3 | 0.00 | 0.00 | 0.00 | 85 | 999.7 |
| 20260505040924 | 71 | 148 | 5.2 | 11.3 | 0.00 | 0.00 | 0.00 | 85 | 1000.1 |
| 20260505040423 | 71 | 150 | 5.2 | 11.3 | 0.00 | 0.00 | 0.00 | 84 | 999.9 |
| 20260505035922 | 71 | 150 | 5.2 | 11.3 | 0.00 | 0.00 | 0.00 | 84 | 1000.0 |
| 20260505035421 | 71 | 160 | 5.2 | 11.3 | 0.00 | 0.00 | 0.00 | 84 | 999.8 |
| 20260505034919 | 72 | 153 | 6.1 | 11.3 | 0.00 | 0.00 | 0.00 | 84 | 1000.1 |
| 20260505034419 | 72 | 157 | 6.1 | 11.3 | 0.00 | 0.00 | 0.00 | 83 | 999.4 |
| 20260505033918 | 72 | 151 | 6.1 | 12.2 | 0.00 | 0.00 | 0.00 | 83 | 999.6 |
| 20260505033416 | 72 | 159 | 6.1 | 13.9 | 0.00 | 0.00 | 0.00 | 82 | 999.3 |
| 20260505032400 | 72 | 160 | 6.1 | 10.4 | 0.00 | 0.00 | 0.00 | 82 | 998.9 |
| 20260505031859 | 72 | 151 | 6.1 | 10.4 | 0.00 | 0.00 | 0.00 | 81 | 998.9 |
| 20260505031358 | 72 | 158 | 4.3 | 10.4 | 0.00 | 0.00 | 0.00 | 81 | 999.0 |
| 20260505030857 | 73 | 152 | 6.1 | 12.2 | 0.00 | 0.00 | 0.00 | 81 | 998.6 |
| 20260505030356 | 73 | 151 | 6.1 | 12.2 | 0.00 | 0.00 | 0.00 | 81 | 998.2 |
| 20260505025855 | 73 | 159 | 6.1 | 11.3 | 0.00 | 0.00 | 0.00 | 81 | 998.3 |
| 20260505025354 | 73 | 154 | 6.1 | 11.3 | 0.00 | 0.00 | 0.00 | 81 | 998.3 |
| 20260505024853 | 73 | 155 | 6.1 | 11.3 | 0.00 | 0.00 | 0.00 | 81 | 998.8 |
| 20260505024352 | 73 | 158 | 5.2 | 12.2 | 0.00 | 0.00 | 0.00 | 81 | 998.4 |
| 20260505023851 | 73 | 155 | 5.2 | 12.2 | 0.00 | 0.00 | 0.00 | 80 | 997.6 |
| 20260505023350 | 73 | 157 | 4.3 | 10.4 | 0.00 | 0.00 | 0.00 | 81 | 998.3 |
| 20260505022333 | 73 | 155 | 4.3 | 10.4 | 0.00 | 0.00 | 0.00 | 80 | 997.9 |
| 20260505021832 | 74 | 155 | 4.3 | 10.4 | 0.00 | 0.00 | 0.00 | 79 | 998.1 |
| 20260505021331 | 74 | 154 | 6.1 | 10.4 | 0.00 | 0.00 | 0.00 | 79 | 997.9 |
| 20260505020830 | 74 | 153 | 4.3 | 10.4 | 0.00 | 0.00 | 0.00 | 79 | 997.8 |
| 20260505020329 | 74 | 152 | 5.2 | 10.4 | 0.00 | 0.00 | 0.00 | 78 | 997.6 |
| 20260505015828 | 74 | 158 | 6.1 | 10.4 | 0.00 | 0.00 | 0.00 | 78 | 998.1 |